sensor_id;sensor_type;location;lat;lon;timestamp;P1;P2;P0
47810;PMS5003;33575;52.600;7.318;2023-06-22T00:01:53;38;37;
47810;PMS5003;33575;52.600;7.318;2023-06-22T00:04:23;49;45;
47810;PMS5003;33575;52.600;7.318;2023-06-22T00:06:53;38;35;
47810;PMS5003;33575;52.600;7.318;2023-06-22T00:09:24;35;34;
47810;PMS5003;33575;52.600;7.318;2023-06-22T00:11:55;37;37;
47810;PMS5003;33575;52.600;7.318;2023-06-22T00:14:25;34;33;
47810;PMS5003;33575;52.600;7.318;2023-06-22T00:16:56;35;35;
47810;PMS5003;33575;52.600;7.318;2023-06-22T00:19:26;31;31;
47810;PMS5003;33575;52.600;7.318;2023-06-22T00:21:57;33;33;
47810;PMS5003;33575;52.600;7.318;2023-06-22T00:24:27;30;30;
47810;PMS5003;33575;52.600;7.318;2023-06-22T00:26:58;33;32;
47810;PMS5003;33575;52.600;7.318;2023-06-22T00:29:29;34;33;
47810;PMS5003;33575;52.600;7.318;2023-06-22T00:31:59;38;36;
47810;PMS5003;33575;52.600;7.318;2023-06-22T00:34:30;34;33;
47810;PMS5003;33575;52.600;7.318;2023-06-22T00:37:00;35;34;
47810;PMS5003;33575;52.600;7.318;2023-06-22T00:39:31;38;37;
47810;PMS5003;33575;52.600;7.318;2023-06-22T00:42:01;42;40;
47810;PMS5003;33575;52.600;7.318;2023-06-22T00:44:31;45;39;
47810;PMS5003;33575;52.600;7.318;2023-06-22T00:47:02;45;41;
47810;PMS5003;33575;52.600;7.318;2023-06-22T00:49:32;41;39;
47810;PMS5003;33575;52.600;7.318;2023-06-22T00:52:02;40;38;
47810;PMS5003;33575;52.600;7.318;2023-06-22T00:54:33;46;42;
47810;PMS5003;33575;52.600;7.318;2023-06-22T00:57:03;41;39;
47810;PMS5003;33575;52.600;7.318;2023-06-22T00:59:33;43;41;
47810;PMS5003;33575;52.600;7.318;2023-06-22T01:02:04;43;43;
47810;PMS5003;33575;52.600;7.318;2023-06-22T01:04:35;46;45;
47810;PMS5003;33575;52.600;7.318;2023-06-22T01:07:06;41;38;
47810;PMS5003;33575;52.600;7.318;2023-06-22T01:09:35;46;45;
47810;PMS5003;33575;52.600;7.318;2023-06-22T01:12:06;36;35;
47810;PMS5003;33575;52.600;7.318;2023-06-22T01:14:37;39;39;
47810;PMS5003;33575;52.600;7.318;2023-06-22T01:17:07;43;43;
47810;PMS5003;33575;52.600;7.318;2023-06-22T01:19:38;56;54;
47810;PMS5003;33575;52.600;7.318;2023-06-22T01:22:07;47;45;
47810;PMS5003;33575;52.600;7.318;2023-06-22T01:24:41;39;39;
47810;PMS5003;33575;52.600;7.318;2023-06-22T01:27:10;43;41;
47810;PMS5003;33575;52.600;7.318;2023-06-22T01:29:39;45;45;
47810;PMS5003;33575;52.600;7.318;2023-06-22T01:32:10;44;43;
47810;PMS5003;33575;52.600;7.318;2023-06-22T01:34:39;39;36;
47810;PMS5003;33575;52.600;7.318;2023-06-22T01:37:11;40;39;
47810;PMS5003;33575;52.600;7.318;2023-06-22T01:39:40;43;42;
47810;PMS5003;33575;52.600;7.318;2023-06-22T01:42:10;53;51;
47810;PMS5003;33575;52.600;7.318;2023-06-22T01:44:41;43;42;
47810;PMS5003;33575;52.600;7.318;2023-06-22T01:47:12;45;42;
47810;PMS5003;33575;52.600;7.318;2023-06-22T01:49:43;45;42;
47810;PMS5003;33575;52.600;7.318;2023-06-22T01:52:13;46;43;
47810;PMS5003;33575;52.600;7.318;2023-06-22T01:54:44;46;42;
47810;PMS5003;33575;52.600;7.318;2023-06-22T01:57:14;48;47;
47810;PMS5003;33575;52.600;7.318;2023-06-22T01:59:47;53;48;
47810;PMS5003;33575;52.600;7.318;2023-06-22T02:02:16;46;45;
47810;PMS5003;33575;52.600;7.318;2023-06-22T02:04:48;50;49;
47810;PMS5003;33575;52.600;7.318;2023-06-22T02:07:17;48;45;
47810;PMS5003;33575;52.600;7.318;2023-06-22T02:09:47;51;44;
47810;PMS5003;33575;52.600;7.318;2023-06-22T02:12:18;55;53;
47810;PMS5003;33575;52.600;7.318;2023-06-22T02:14:48;54;51;
47810;PMS5003;33575;52.600;7.318;2023-06-22T02:17:18;56;54;
47810;PMS5003;33575;52.600;7.318;2023-06-22T02:19:49;52;49;
47810;PMS5003;33575;52.600;7.318;2023-06-22T02:22:19;59;55;
47810;PMS5003;33575;52.600;7.318;2023-06-22T02:24:49;53;51;
47810;PMS5003;33575;52.600;7.318;2023-06-22T02:27:19;55;54;
47810;PMS5003;33575;52.600;7.318;2023-06-22T02:29:50;52;50;
47810;PMS5003;33575;52.600;7.318;2023-06-22T02:32:21;58;52;
47810;PMS5003;33575;52.600;7.318;2023-06-22T02:34:52;57;56;
47810;PMS5003;33575;52.600;7.318;2023-06-22T02:37:21;55;54;
47810;PMS5003;33575;52.600;7.318;2023-06-22T02:39:52;56;54;
47810;PMS5003;33575;52.600;7.318;2023-06-22T02:42:22;54;51;
47810;PMS5003;33575;52.600;7.318;2023-06-22T02:44:52;52;51;
47810;PMS5003;33575;52.600;7.318;2023-06-22T02:47:23;59;55;
47810;PMS5003;33575;52.600;7.318;2023-06-22T02:49:54;54;54;
47810;PMS5003;33575;52.600;7.318;2023-06-22T02:52:24;53;49;
47810;PMS5003;33575;52.600;7.318;2023-06-22T02:54:54;51;47;
47810;PMS5003;33575;52.600;7.318;2023-06-22T02:57:25;57;56;
47810;PMS5003;33575;52.600;7.318;2023-06-22T02:59:55;53;51;
47810;PMS5003;33575;52.600;7.318;2023-06-22T03:02:25;54;53;
47810;PMS5003;33575;52.600;7.318;2023-06-22T03:04:56;58;56;
47810;PMS5003;33575;52.600;7.318;2023-06-22T03:07:27;66;61;
47810;PMS5003;33575;52.600;7.318;2023-06-22T03:09:56;58;55;
47810;PMS5003;33575;52.600;7.318;2023-06-22T03:12:26;68;63;
47810;PMS5003;33575;52.600;7.318;2023-06-22T03:14:57;58;56;
47810;PMS5003;33575;52.600;7.318;2023-06-22T03:17:28;58;55;
47810;PMS5003;33575;52.600;7.318;2023-06-22T03:19:58;59;56;
47810;PMS5003;33575;52.600;7.318;2023-06-22T03:22:28;58;58;
47810;PMS5003;33575;52.600;7.318;2023-06-22T03:24:59;60;58;
47810;PMS5003;33575;52.600;7.318;2023-06-22T03:27:29;64;58;
47810;PMS5003;33575;52.600;7.318;2023-06-22T03:30:00;67;65;
47810;PMS5003;33575;52.600;7.318;2023-06-22T03:32:30;57;56;
47810;PMS5003;33575;52.600;7.318;2023-06-22T03:35:01;59;56;
47810;PMS5003;33575;52.600;7.318;2023-06-22T03:37:31;62;60;
47810;PMS5003;33575;52.600;7.318;2023-06-22T03:40:01;62;59;
47810;PMS5003;33575;52.600;7.318;2023-06-22T03:42:33;68;65;
47810;PMS5003;33575;52.600;7.318;2023-06-22T03:45:01;69;67;
47810;PMS5003;33575;52.600;7.318;2023-06-22T03:47:32;57;55;
47810;PMS5003;33575;52.600;7.318;2023-06-22T03:50:03;70;67;
47810;PMS5003;33575;52.600;7.318;2023-06-22T03:52:33;65;62;
47810;PMS5003;33575;52.600;7.318;2023-06-22T03:55:03;62;58;
47810;PMS5003;33575;52.600;7.318;2023-06-22T03:57:33;61;59;
47810;PMS5003;33575;52.600;7.318;2023-06-22T04:00:05;60;57;
47810;PMS5003;33575;52.600;7.318;2023-06-22T04:02:35;65;64;
47810;PMS5003;33575;52.600;7.318;2023-06-22T04:05:06;74;70;
47810;PMS5003;33575;52.600;7.318;2023-06-22T04:07:36;57;56;
47810;PMS5003;33575;52.600;7.318;2023-06-22T04:10:07;59;57;
47810;PMS5003;33575;52.600;7.318;2023-06-22T04:12:37;62;58;
47810;PMS5003;33575;52.600;7.318;2023-06-22T04:15:09;63;60;
47810;PMS5003;33575;52.600;7.318;2023-06-22T04:17:38;58;55;
47810;PMS5003;33575;52.600;7.318;2023-06-22T04:20:09;56;54;
47810;PMS5003;33575;52.600;7.318;2023-06-22T04:22:39;63;63;
47810;PMS5003;33575;52.600;7.318;2023-06-22T04:25:10;67;62;
47810;PMS5003;33575;52.600;7.318;2023-06-22T04:27:40;64;63;
47810;PMS5003;33575;52.600;7.318;2023-06-22T04:30:11;68;62;
47810;PMS5003;33575;52.600;7.318;2023-06-22T04:32:42;75;73;
47810;PMS5003;33575;52.600;7.318;2023-06-22T04:35:12;61;60;
47810;PMS5003;33575;52.600;7.318;2023-06-22T04:37:42;62;58;
47810;PMS5003;33575;52.600;7.318;2023-06-22T04:40:13;61;60;
47810;PMS5003;33575;52.600;7.318;2023-06-22T04:42:43;61;60;
47810;PMS5003;33575;52.600;7.318;2023-06-22T04:45:13;53;52;
47810;PMS5003;33575;52.600;7.318;2023-06-22T04:47:44;66;64;
47810;PMS5003;33575;52.600;7.318;2023-06-22T04:50:14;66;65;
47810;PMS5003;33575;52.600;7.318;2023-06-22T04:52:45;56;55;
47810;PMS5003;33575;52.600;7.318;2023-06-22T04:55:16;66;62;
47810;PMS5003;33575;52.600;7.318;2023-06-22T04:57:46;70;64;
47810;PMS5003;33575;52.600;7.318;2023-06-22T05:00:16;69;65;
47810;PMS5003;33575;52.600;7.318;2023-06-22T05:02:47;74;70;
47810;PMS5003;33575;52.600;7.318;2023-06-22T05:05:17;64;61;
47810;PMS5003;33575;52.600;7.318;2023-06-22T05:07:49;69;66;
47810;PMS5003;33575;52.600;7.318;2023-06-22T05:10:18;59;57;
47810;PMS5003;33575;52.600;7.318;2023-06-22T05:12:48;65;63;
47810;PMS5003;33575;52.600;7.318;2023-06-22T05:15:18;67;66;
47810;PMS5003;33575;52.600;7.318;2023-06-22T05:17:49;72;68;
47810;PMS5003;33575;52.600;7.318;2023-06-22T05:20:20;69;67;
47810;PMS5003;33575;52.600;7.318;2023-06-22T05:22:51;61;58;
47810;PMS5003;33575;52.600;7.318;2023-06-22T05:25:21;86;82;
47810;PMS5003;33575;52.600;7.318;2023-06-22T05:27:51;64;62;
47810;PMS5003;33575;52.600;7.318;2023-06-22T05:30:23;60;59;
47810;PMS5003;33575;52.600;7.318;2023-06-22T05:32:52;66;65;
47810;PMS5003;33575;52.600;7.318;2023-06-22T05:35:23;76;75;
47810;PMS5003;33575;52.600;7.318;2023-06-22T05:37:53;60;58;
47810;PMS5003;33575;52.600;7.318;2023-06-22T05:40:24;66;64;
47810;PMS5003;33575;52.600;7.318;2023-06-22T05:42:54;48;47;
47810;PMS5003;33575;52.600;7.318;2023-06-22T05:45:24;54;48;
47810;PMS5003;33575;52.600;7.318;2023-06-22T05:47:55;63;59;
47810;PMS5003;33575;52.600;7.318;2023-06-22T05:50:25;48;46;
47810;PMS5003;33575;52.600;7.318;2023-06-22T05:52:56;52;49;
47810;PMS5003;33575;52.600;7.318;2023-06-22T05:55:26;69;64;
47810;PMS5003;33575;52.600;7.318;2023-06-22T05:57:57;48;43;
47810;PMS5003;33575;52.600;7.318;2023-06-22T06:00:27;55;50;
47810;PMS5003;33575;52.600;7.318;2023-06-22T06:02:57;46;46;
47810;PMS5003;33575;52.600;7.318;2023-06-22T06:05:28;50;46;
47810;PMS5003;33575;52.600;7.318;2023-06-22T06:07:58;50;48;
47810;PMS5003;33575;52.600;7.318;2023-06-22T06:10:29;49;45;
47810;PMS5003;33575;52.600;7.318;2023-06-22T06:12:59;41;40;
47810;PMS5003;33575;52.600;7.318;2023-06-22T06:15:29;41;40;
47810;PMS5003;33575;52.600;7.318;2023-06-22T06:18:00;39;38;
47810;PMS5003;33575;52.600;7.318;2023-06-22T06:20:32;40;37;
47810;PMS5003;33575;52.600;7.318;2023-06-22T06:23:01;37;37;
47810;PMS5003;33575;52.600;7.318;2023-06-22T06:25:32;37;34;
47810;PMS5003;33575;52.600;7.318;2023-06-22T06:28:02;29;29;
47810;PMS5003;33575;52.600;7.318;2023-06-22T06:30:33;28;28;
47810;PMS5003;33575;52.600;7.318;2023-06-22T06:33:03;26;25;
47810;PMS5003;33575;52.600;7.318;2023-06-22T06:35:34;30;28;
47810;PMS5003;33575;52.600;7.318;2023-06-22T06:38:03;21;21;
47810;PMS5003;33575;52.600;7.318;2023-06-22T06:40:34;19;18;
47810;PMS5003;33575;52.600;7.318;2023-06-22T06:43:04;18;18;
47810;PMS5003;33575;52.600;7.318;2023-06-22T06:45:35;21;19;
47810;PMS5003;33575;52.600;7.318;2023-06-22T06:48:05;18;17;
47810;PMS5003;33575;52.600;7.318;2023-06-22T06:50:35;18;17;
47810;PMS5003;33575;52.600;7.318;2023-06-22T06:53:06;19;18;
47810;PMS5003;33575;52.600;7.318;2023-06-22T06:55:36;16;16;
47810;PMS5003;33575;52.600;7.318;2023-06-22T06:58:07;19;18;
47810;PMS5003;33575;52.600;7.318;2023-06-22T07:00:37;21;19;
47810;PMS5003;33575;52.600;7.318;2023-06-22T07:03:08;17;17;
47810;PMS5003;33575;52.600;7.318;2023-06-22T07:05:38;16;16;
47810;PMS5003;33575;52.600;7.318;2023-06-22T07:08:09;20;20;
47810;PMS5003;33575;52.600;7.318;2023-06-22T07:10:39;20;20;
47810;PMS5003;33575;52.600;7.318;2023-06-22T07:13:09;19;17;
47810;PMS5003;33575;52.600;7.318;2023-06-22T07:15:39;21;19;
47810;PMS5003;33575;52.600;7.318;2023-06-22T07:18:10;14;14;
47810;PMS5003;33575;52.600;7.318;2023-06-22T07:20:40;18;17;
47810;PMS5003;33575;52.600;7.318;2023-06-22T07:23:10;14;14;
47810;PMS5003;33575;52.600;7.318;2023-06-22T07:25:41;15;14;
47810;PMS5003;33575;52.600;7.318;2023-06-22T07:28:11;16;16;
47810;PMS5003;33575;52.600;7.318;2023-06-22T07:30:42;17;16;
47810;PMS5003;33575;52.600;7.318;2023-06-22T07:33:12;16;16;
47810;PMS5003;33575;52.600;7.318;2023-06-22T07:35:42;14;14;
47810;PMS5003;33575;52.600;7.318;2023-06-22T07:38:12;13;13;
47810;PMS5003;33575;52.600;7.318;2023-06-22T07:40:42;17;16;
47810;PMS5003;33575;52.600;7.318;2023-06-22T07:43:13;15;14;
47810;PMS5003;33575;52.600;7.318;2023-06-22T07:45:48;16;16;
47810;PMS5003;33575;52.600;7.318;2023-06-22T07:48:14;16;15;
47810;PMS5003;33575;52.600;7.318;2023-06-22T07:50:44;15;15;
47810;PMS5003;33575;52.600;7.318;2023-06-22T07:53:14;17;16;
47810;PMS5003;33575;52.600;7.318;2023-06-22T07:55:44;18;18;
47810;PMS5003;33575;52.600;7.318;2023-06-22T07:58:14;15;15;
47810;PMS5003;33575;52.600;7.318;2023-06-22T08:00:45;17;15;
47810;PMS5003;33575;52.600;7.318;2023-06-22T08:03:16;16;14;
47810;PMS5003;33575;52.600;7.318;2023-06-22T08:05:46;15;14;
47810;PMS5003;33575;52.600;7.318;2023-06-22T08:08:16;15;13;
47810;PMS5003;33575;52.600;7.318;2023-06-22T08:10:46;14;14;
47810;PMS5003;33575;52.600;7.318;2023-06-22T08:13:16;13;13;
47810;PMS5003;33575;52.600;7.318;2023-06-22T08:15:49;13;12;
47810;PMS5003;33575;52.600;7.318;2023-06-22T08:18:17;11;11;
47810;PMS5003;33575;52.600;7.318;2023-06-22T08:20:47;14;13;
47810;PMS5003;33575;52.600;7.318;2023-06-22T08:23:18;14;13;
47810;PMS5003;33575;52.600;7.318;2023-06-22T08:25:48;15;14;
47810;PMS5003;33575;52.600;7.318;2023-06-22T08:28:19;16;15;
47810;PMS5003;33575;52.600;7.318;2023-06-22T08:30:49;12;12;
47810;PMS5003;33575;52.600;7.318;2023-06-22T08:33:24;13;13;
47810;PMS5003;33575;52.600;7.318;2023-06-22T08:35:50;14;12;
47810;PMS5003;33575;52.600;7.318;2023-06-22T08:38:20;18;17;
47810;PMS5003;33575;52.600;7.318;2023-06-22T08:40:50;14;14;
47810;PMS5003;33575;52.600;7.318;2023-06-22T08:43:20;14;14;
47810;PMS5003;33575;52.600;7.318;2023-06-22T08:45:50;15;14;
47810;PMS5003;33575;52.600;7.318;2023-06-22T08:48:21;11;11;
47810;PMS5003;33575;52.600;7.318;2023-06-22T08:50:51;14;14;
47810;PMS5003;33575;52.600;7.318;2023-06-22T08:53:22;18;17;
47810;PMS5003;33575;52.600;7.318;2023-06-22T08:55:53;19;18;
47810;PMS5003;33575;52.600;7.318;2023-06-22T08:58:23;15;15;
47810;PMS5003;33575;52.600;7.318;2023-06-22T09:00:53;13;13;
47810;PMS5003;33575;52.600;7.318;2023-06-22T09:03:23;17;15;
47810;PMS5003;33575;52.600;7.318;2023-06-22T09:05:53;12;11;
47810;PMS5003;33575;52.600;7.318;2023-06-22T09:08:23;14;13;
47810;PMS5003;33575;52.600;7.318;2023-06-22T09:10:53;14;12;
47810;PMS5003;33575;52.600;7.318;2023-06-22T09:13:24;15;14;
47810;PMS5003;33575;52.600;7.318;2023-06-22T09:15:54;12;11;
47810;PMS5003;33575;52.600;7.318;2023-06-22T09:18:24;15;12;
47810;PMS5003;33575;52.600;7.318;2023-06-22T09:20:54;17;15;
47810;PMS5003;33575;52.600;7.318;2023-06-22T09:23:25;15;14;
47810;PMS5003;33575;52.600;7.318;2023-06-22T09:25:55;15;13;
47810;PMS5003;33575;52.600;7.318;2023-06-22T09:28:25;16;15;
47810;PMS5003;33575;52.600;7.318;2023-06-22T09:30:56;16;15;
47810;PMS5003;33575;52.600;7.318;2023-06-22T09:33:26;17;15;
47810;PMS5003;33575;52.600;7.318;2023-06-22T09:35:57;13;13;
47810;PMS5003;33575;52.600;7.318;2023-06-22T09:38:27;13;13;
47810;PMS5003;33575;52.600;7.318;2023-06-22T09:40:57;15;15;
47810;PMS5003;33575;52.600;7.318;2023-06-22T09:43:28;16;16;
47810;PMS5003;33575;52.600;7.318;2023-06-22T09:45:58;18;18;
47810;PMS5003;33575;52.600;7.318;2023-06-22T09:48:29;15;15;
47810;PMS5003;33575;52.600;7.318;2023-06-22T09:50:59;19;18;
47810;PMS5003;33575;52.600;7.318;2023-06-22T09:53:29;16;15;
47810;PMS5003;33575;52.600;7.318;2023-06-22T09:55:59;17;17;
47810;PMS5003;33575;52.600;7.318;2023-06-22T09:58:29;17;15;
47810;PMS5003;33575;52.600;7.318;2023-06-22T10:01:00;16;16;
47810;PMS5003;33575;52.600;7.318;2023-06-22T10:03:31;18;18;
47810;PMS5003;33575;52.600;7.318;2023-06-22T10:06:01;18;18;
47810;PMS5003;33575;52.600;7.318;2023-06-22T10:08:32;16;14;
47810;PMS5003;33575;52.600;7.318;2023-06-22T10:13:32;17;16;
47810;PMS5003;33575;52.600;7.318;2023-06-22T10:16:02;19;18;
47810;PMS5003;33575;52.600;7.318;2023-06-22T10:18:33;21;20;
47810;PMS5003;33575;52.600;7.318;2023-06-22T10:21:03;15;15;
47810;PMS5003;33575;52.600;7.318;2023-06-22T10:23:34;18;17;
47810;PMS5003;33575;52.600;7.318;2023-06-22T10:26:04;17;17;
47810;PMS5003;33575;52.600;7.318;2023-06-22T10:28:34;20;19;
47810;PMS5003;33575;52.600;7.318;2023-06-22T10:31:05;20;18;
47810;PMS5003;33575;52.600;7.318;2023-06-22T10:33:36;19;18;
47810;PMS5003;33575;52.600;7.318;2023-06-22T10:36:06;15;15;
47810;PMS5003;33575;52.600;7.318;2023-06-22T10:38:36;18;16;
47810;PMS5003;33575;52.600;7.318;2023-06-22T10:41:06;16;16;
47810;PMS5003;33575;52.600;7.318;2023-06-22T10:43:36;21;21;
47810;PMS5003;33575;52.600;7.318;2023-06-22T10:46:07;18;18;
47810;PMS5003;33575;52.600;7.318;2023-06-22T10:48:37;20;20;
47810;PMS5003;33575;52.600;7.318;2023-06-22T10:51:07;22;20;
47810;PMS5003;33575;52.600;7.318;2023-06-22T10:53:37;19;19;
47810;PMS5003;33575;52.600;7.318;2023-06-22T10:56:08;17;17;
47810;PMS5003;33575;52.600;7.318;2023-06-22T10:58:39;22;21;
47810;PMS5003;33575;52.600;7.318;2023-06-22T11:01:14;20;18;
47810;PMS5003;33575;52.600;7.318;2023-06-22T11:03:39;18;17;
47810;PMS5003;33575;52.600;7.318;2023-06-22T11:06:09;19;19;
47810;PMS5003;33575;52.600;7.318;2023-06-22T11:08:44;20;20;
47810;PMS5003;33575;52.600;7.318;2023-06-22T11:11:10;23;22;
47810;PMS5003;33575;52.600;7.318;2023-06-22T11:13:40;23;22;
47810;PMS5003;33575;52.600;7.318;2023-06-22T11:16:11;19;18;
47810;PMS5003;33575;52.600;7.318;2023-06-22T11:18:42;19;19;
47810;PMS5003;33575;52.600;7.318;2023-06-22T11:21:12;24;22;
47810;PMS5003;33575;52.600;7.318;2023-06-22T11:23:42;20;20;
47810;PMS5003;33575;52.600;7.318;2023-06-22T11:26:13;22;20;
47810;PMS5003;33575;52.600;7.318;2023-06-22T11:28:43;21;19;
47810;PMS5003;33575;52.600;7.318;2023-06-22T11:31:19;19;18;
47810;PMS5003;33575;52.600;7.318;2023-06-22T11:33:45;20;19;
47810;PMS5003;33575;52.600;7.318;2023-06-22T11:36:15;19;18;
47810;PMS5003;33575;52.600;7.318;2023-06-22T11:38:45;20;20;
47810;PMS5003;33575;52.600;7.318;2023-06-22T11:41:16;20;19;
47810;PMS5003;33575;52.600;7.318;2023-06-22T11:43:46;22;21;
47810;PMS5003;33575;52.600;7.318;2023-06-22T11:46:17;20;19;
47810;PMS5003;33575;52.600;7.318;2023-06-22T11:48:47;19;19;
47810;PMS5003;33575;52.600;7.318;2023-06-22T11:51:17;20;19;
47810;PMS5003;33575;52.600;7.318;2023-06-22T11:53:47;17;17;
47810;PMS5003;33575;52.600;7.318;2023-06-22T11:56:18;17;17;
47810;PMS5003;33575;52.600;7.318;2023-06-22T11:58:48;22;22;
47810;PMS5003;33575;52.600;7.318;2023-06-22T12:01:19;19;18;
47810;PMS5003;33575;52.600;7.318;2023-06-22T12:03:49;18;18;
47810;PMS5003;33575;52.600;7.318;2023-06-22T12:06:19;18;17;
47810;PMS5003;33575;52.600;7.318;2023-06-22T12:08:49;20;20;
47810;PMS5003;33575;52.600;7.318;2023-06-22T12:11:19;22;21;
47810;PMS5003;33575;52.600;7.318;2023-06-22T12:13:50;23;20;
47810;PMS5003;33575;52.600;7.318;2023-06-22T12:16:20;28;27;
47810;PMS5003;33575;52.600;7.318;2023-06-22T12:18:51;21;21;
47810;PMS5003;33575;52.600;7.318;2023-06-22T12:21:21;26;25;
47810;PMS5003;33575;52.600;7.318;2023-06-22T12:23:51;23;21;
47810;PMS5003;33575;52.600;7.318;2023-06-22T12:26:22;22;21;
47810;PMS5003;33575;52.600;7.318;2023-06-22T12:28:53;20;18;
47810;PMS5003;33575;52.600;7.318;2023-06-22T12:31:23;26;25;
47810;PMS5003;33575;52.600;7.318;2023-06-22T12:33:54;23;23;
47810;PMS5003;33575;52.600;7.318;2023-06-22T12:36:24;25;23;
47810;PMS5003;33575;52.600;7.318;2023-06-22T12:38:57;20;19;
47810;PMS5003;33575;52.600;7.318;2023-06-22T12:41:25;19;19;
47810;PMS5003;33575;52.600;7.318;2023-06-22T12:43:55;21;21;
47810;PMS5003;33575;52.600;7.318;2023-06-22T12:46:26;23;20;
47810;PMS5003;33575;52.600;7.318;2023-06-22T12:48:56;20;20;
47810;PMS5003;33575;52.600;7.318;2023-06-22T12:51:26;24;24;
47810;PMS5003;33575;52.600;7.318;2023-06-22T12:53:56;26;26;
47810;PMS5003;33575;52.600;7.318;2023-06-22T12:56:27;21;21;
47810;PMS5003;33575;52.600;7.318;2023-06-22T12:58:57;19;18;
47810;PMS5003;33575;52.600;7.318;2023-06-22T13:01:28;20;20;
47810;PMS5003;33575;52.600;7.318;2023-06-22T13:03:58;24;24;
47810;PMS5003;33575;52.600;7.318;2023-06-22T13:06:28;19;19;
47810;PMS5003;33575;52.600;7.318;2023-06-22T13:09:04;19;18;
47810;PMS5003;33575;52.600;7.318;2023-06-22T13:11:29;20;19;
47810;PMS5003;33575;52.600;7.318;2023-06-22T13:14:00;23;20;
47810;PMS5003;33575;52.600;7.318;2023-06-22T13:16:30;24;23;
47810;PMS5003;33575;52.600;7.318;2023-06-22T13:19:00;25;23;
47810;PMS5003;33575;52.600;7.318;2023-06-22T13:21:30;22;21;
47810;PMS5003;33575;52.600;7.318;2023-06-22T13:24:00;20;18;
47810;PMS5003;33575;52.600;7.318;2023-06-22T13:26:30;20;20;
47810;PMS5003;33575;52.600;7.318;2023-06-22T13:29:01;19;18;
47810;PMS5003;33575;52.600;7.318;2023-06-22T13:31:31;20;20;
47810;PMS5003;33575;52.600;7.318;2023-06-22T13:34:02;26;25;
47810;PMS5003;33575;52.600;7.318;2023-06-22T13:36:33;21;20;
47810;PMS5003;33575;52.600;7.318;2023-06-22T13:39:03;19;18;
47810;PMS5003;33575;52.600;7.318;2023-06-22T13:41:34;20;19;
47810;PMS5003;33575;52.600;7.318;2023-06-22T13:44:04;22;21;
47810;PMS5003;33575;52.600;7.318;2023-06-22T13:46:35;20;20;
47810;PMS5003;33575;52.600;7.318;2023-06-22T13:49:05;23;22;
47810;PMS5003;33575;52.600;7.318;2023-06-22T13:51:35;26;24;
47810;PMS5003;33575;52.600;7.318;2023-06-22T13:54:08;26;26;
47810;PMS5003;33575;52.600;7.318;2023-06-22T13:56:36;25;25;
47810;PMS5003;33575;52.600;7.318;2023-06-22T13:59:06;26;24;
47810;PMS5003;33575;52.600;7.318;2023-06-22T14:01:36;30;29;
47810;PMS5003;33575;52.600;7.318;2023-06-22T14:04:07;33;32;
47810;PMS5003;33575;52.600;7.318;2023-06-22T14:06:37;34;32;
47810;PMS5003;33575;52.600;7.318;2023-06-22T14:09:08;35;33;
47810;PMS5003;33575;52.600;7.318;2023-06-22T14:11:39;34;32;
47810;PMS5003;33575;52.600;7.318;2023-06-22T14:14:09;33;32;
47810;PMS5003;33575;52.600;7.318;2023-06-22T14:16:39;33;32;
47810;PMS5003;33575;52.600;7.318;2023-06-22T14:19:10;39;37;
47810;PMS5003;33575;52.600;7.318;2023-06-22T14:21:40;55;54;
47810;PMS5003;33575;52.600;7.318;2023-06-22T14:24:10;62;62;
47810;PMS5003;33575;52.600;7.318;2023-06-22T14:26:40;36;35;
47810;PMS5003;33575;52.600;7.318;2023-06-22T14:29:10;48;48;
47810;PMS5003;33575;52.600;7.318;2023-06-22T14:31:44;41;41;
47810;PMS5003;33575;52.600;7.318;2023-06-22T14:34:12;50;50;
47810;PMS5003;33575;52.600;7.318;2023-06-22T14:36:42;41;40;
47810;PMS5003;33575;52.600;7.318;2023-06-22T14:39:12;51;50;
47810;PMS5003;33575;52.600;7.318;2023-06-22T14:41:42;34;34;
47810;PMS5003;33575;52.600;7.318;2023-06-22T14:44:12;35;35;
47810;PMS5003;33575;52.600;7.318;2023-06-22T14:46:43;37;34;
47810;PMS5003;33575;52.600;7.318;2023-06-22T14:49:14;39;39;
47810;PMS5003;33575;52.600;7.318;2023-06-22T14:51:44;36;34;
47810;PMS5003;33575;52.600;7.318;2023-06-22T14:54:15;37;37;
47810;PMS5003;33575;52.600;7.318;2023-06-22T14:56:46;47;44;
47810;PMS5003;33575;52.600;7.318;2023-06-22T14:59:16;37;36;
47810;PMS5003;33575;52.600;7.318;2023-06-22T15:01:48;37;35;
47810;PMS5003;33575;52.600;7.318;2023-06-22T15:04:17;38;35;
47810;PMS5003;33575;52.600;7.318;2023-06-22T15:06:47;34;33;
47810;PMS5003;33575;52.600;7.318;2023-06-22T15:09:18;43;42;
47810;PMS5003;33575;52.600;7.318;2023-06-22T15:11:48;37;33;
47810;PMS5003;33575;52.600;7.318;2023-06-22T15:14:19;38;36;
47810;PMS5003;33575;52.600;7.318;2023-06-22T15:16:49;40;36;
47810;PMS5003;33575;52.600;7.318;2023-06-22T15:19:20;39;37;
47810;PMS5003;33575;52.600;7.318;2023-06-22T15:21:50;39;36;
47810;PMS5003;33575;52.600;7.318;2023-06-22T15:24:20;37;36;
47810;PMS5003;33575;52.600;7.318;2023-06-22T15:26:51;33;32;
47810;PMS5003;33575;52.600;7.318;2023-06-22T15:29:22;37;35;
47810;PMS5003;33575;52.600;7.318;2023-06-22T15:31:52;35;33;
47810;PMS5003;33575;52.600;7.318;2023-06-22T15:34:23;35;34;
47810;PMS5003;33575;52.600;7.318;2023-06-22T15:36:53;36;35;
47810;PMS5003;33575;52.600;7.318;2023-06-22T15:39:23;42;39;
47810;PMS5003;33575;52.600;7.318;2023-06-22T15:41:54;36;36;
47810;PMS5003;33575;52.600;7.318;2023-06-22T15:44:25;37;37;
47810;PMS5003;33575;52.600;7.318;2023-06-22T15:46:56;38;36;
47810;PMS5003;33575;52.600;7.318;2023-06-22T15:49:26;33;33;
47810;PMS5003;33575;52.600;7.318;2023-06-22T15:51:57;32;31;
47810;PMS5003;33575;52.600;7.318;2023-06-22T15:54:27;31;30;
47810;PMS5003;33575;52.600;7.318;2023-06-22T15:56:57;38;38;
47810;PMS5003;33575;52.600;7.318;2023-06-22T15:59:28;42;39;
47810;PMS5003;33575;52.600;7.318;2023-06-22T16:01:59;37;36;
47810;PMS5003;33575;52.600;7.318;2023-06-22T16:04:29;36;34;
47810;PMS5003;33575;52.600;7.318;2023-06-22T16:07:00;33;32;
47810;PMS5003;33575;52.600;7.318;2023-06-22T16:09:31;33;32;
47810;PMS5003;33575;52.600;7.318;2023-06-22T16:12:01;30;30;
47810;PMS5003;33575;52.600;7.318;2023-06-22T16:14:32;35;34;
47810;PMS5003;33575;52.600;7.318;2023-06-22T16:17:03;29;29;
47810;PMS5003;33575;52.600;7.318;2023-06-22T16:19:32;31;31;
47810;PMS5003;33575;52.600;7.318;2023-06-22T16:22:02;35;31;
47810;PMS5003;33575;52.600;7.318;2023-06-22T16:24:32;31;29;
47810;PMS5003;33575;52.600;7.318;2023-06-22T16:27:03;27;27;
47810;PMS5003;33575;52.600;7.318;2023-06-22T16:29:33;29;28;
47810;PMS5003;33575;52.600;7.318;2023-06-22T16:32:05;32;32;
47810;PMS5003;33575;52.600;7.318;2023-06-22T16:34:34;31;30;
47810;PMS5003;33575;52.600;7.318;2023-06-22T16:37:05;32;31;
47810;PMS5003;33575;52.600;7.318;2023-06-22T16:39:35;34;31;
47810;PMS5003;33575;52.600;7.318;2023-06-22T16:42:06;30;30;